createdAt,value
2019-06-27T00:00:53.309Z,75.83
2019-06-27T00:02:03.315Z,75.96
2019-06-27T00:03:13.288Z,75.74
2019-06-27T00:04:23.250Z,75.64
2019-06-27T00:05:33.218Z,76.16
2019-06-27T00:06:43.187Z,75.74
2019-06-27T00:07:52.919Z,76.4
2019-06-27T00:09:02.908Z,76.21
2019-06-27T00:10:12.864Z,77.65
2019-06-27T00:11:22.871Z,77.26
2019-06-27T00:12:32.826Z,77.08
2019-06-27T00:13:42.545Z,76.6
2019-06-27T00:14:52.507Z,75.26
2019-06-27T00:16:02.472Z,76.21
2019-06-27T00:17:12.434Z,75.83
2019-06-27T00:18:21.906Z,75.83
2019-06-27T00:19:31.912Z,75.64
2019-06-27T00:20:41.886Z,75.26
2019-06-27T00:21:51.856Z,75.93
2019-06-27T00:23:01.820Z,75.35
2019-06-27T00:24:11.782Z,76.31
2019-06-27T00:25:21.740Z,76.21
2019-06-27T00:26:31.696Z,76.5
2019-06-27T00:27:41.650Z,76.12
2019-06-27T00:28:51.659Z,76.21
2019-06-27T00:30:01.707Z,76.98
2019-06-27T00:31:11.693Z,76.31
2019-06-27T00:32:21.674Z,75.74
2019-06-27T00:33:31.628Z,76.21
2019-06-27T00:34:41.664Z,76.6
2019-06-27T00:35:51.629Z,75.83
2019-06-27T00:37:01.618Z,76.31
2019-06-27T00:38:11.345Z,76.25
2019-06-27T00:39:21.299Z,76.21
2019-06-27T00:40:31.263Z,76.4
2019-06-27T00:41:41.218Z,75.93
2019-06-27T00:42:51.184Z,76.21
2019-06-27T00:44:01.141Z,76.12
2019-06-27T00:45:11.094Z,76.12
2019-06-27T00:46:21.052Z,76.31
2019-06-27T00:47:31.018Z,75.74
2019-06-27T00:48:40.976Z,76.12
2019-06-27T00:49:50.937Z,75.93
2019-06-27T00:51:00.890Z,75.93
2019-06-27T00:52:10.863Z,76.03
2019-06-27T00:53:20.569Z,75.74
2019-06-27T00:54:30.540Z,76.12
2019-06-27T00:55:40.499Z,75.93
2019-06-27T00:56:50.214Z,75.45
2019-06-27T00:58:15.712Z,75.54
2019-06-27T00:59:25.666Z,74.3
2019-06-27T01:00:35.632Z,75.26
2019-06-27T01:01:45.802Z,74.98
2019-06-27T01:02:55.761Z,75.64
2019-06-27T01:04:05.782Z,75.26
2019-06-27T01:05:15.233Z,75.07
2019-06-27T01:06:25.189Z,75.83
2019-06-27T01:07:35.165Z,75.74
2019-06-27T01:08:45.123Z,76.12
2019-06-27T01:09:55.082Z,75.93
2019-06-27T01:11:08.807Z,76.21
2019-06-27T01:12:18.764Z,76.31
2019-06-27T01:13:28.825Z,76.79
2019-06-27T01:14:38.783Z,76.31
2019-06-27T01:15:48.740Z,77.17
2019-06-27T01:16:58.437Z,76.03
2019-06-27T01:18:08.400Z,75.93
2019-06-27T01:19:18.417Z,76.21
2019-06-27T01:20:28.138Z,76.31
2019-06-27T01:21:38.089Z,76.31
2019-06-27T01:22:48.130Z,76.21
2019-06-27T01:23:58.089Z,75.54
2019-06-27T01:25:07.534Z,75.26
2019-06-27T01:26:17.538Z,75.89
2019-06-27T01:27:32.583Z,76.12
2019-06-27T01:28:42.294Z,76.08
2019-06-27T01:29:52.257Z,76.65
2019-06-27T01:31:02.212Z,76.37
2019-06-27T01:32:12.185Z,76.65
2019-06-27T01:33:21.990Z,77.61
2019-06-27T01:34:31.448Z,77.23
2019-06-27T01:35:41.279Z,77.51
2019-06-27T01:36:51.244Z,77.13
2019-06-27T01:38:01.199Z,77.51
2019-06-27T01:39:10.921Z,76.75
2019-06-27T01:40:20.631Z,78.09
2019-06-27T01:41:30.599Z,77.51
2019-06-27T01:42:40.564Z,77.42
2019-06-27T01:43:52.469Z,77.13
2019-06-27T01:45:02.283Z,77.42
2019-06-27T01:46:12.247Z,77.23
2019-06-27T01:47:21.949Z,76.94
2019-06-27T01:48:31.908Z,76.56
2019-06-27T01:49:41.876Z,77.13
2019-06-27T01:50:51.629Z,76.37
2019-06-27T01:52:01.601Z,77.03
2019-06-27T01:53:11.595Z,76.46
2019-06-27T01:54:21.330Z,76.94
2019-06-27T01:55:31.295Z,76.65
2019-06-27T01:56:41.313Z,77.32
2019-06-27T01:57:51.324Z,77.61
2019-06-27T01:59:01.288Z,77.42
2019-06-27T02:00:11.269Z,77.13
2019-06-27T02:01:21.254Z,76.46
2019-06-27T02:02:31.206Z,76.18
2019-06-27T02:03:41.172Z,76.18
2019-06-27T02:04:51.133Z,76.08
2019-06-27T02:06:01.182Z,76.94
2019-06-27T02:07:11.216Z,76.37
2019-06-27T02:08:21.278Z,75.79
2019-06-27T02:09:33.483Z,76.27
2019-06-27T02:10:43.595Z,76.18
2019-06-27T02:11:53.630Z,77.42
2019-06-27T02:13:03.670Z,76.65
2019-06-27T02:14:13.424Z,76.27
2019-06-27T02:15:24.746Z,76.84
2019-06-27T02:16:34.451Z,76.62
2019-06-27T02:17:44.165Z,76.9
2019-06-27T02:18:54.164Z,76.9
2019-06-27T02:20:04.124Z,77.38
2019-06-27T02:21:14.082Z,77.42
2019-06-27T02:22:24.041Z,77.28
2019-06-27T02:23:34.005Z,76.71
2019-06-27T02:24:43.963Z,76.71
2019-06-27T02:25:53.709Z,77
2019-06-27T02:27:03.662Z,76.62
2019-06-27T02:28:13.614Z,76.71
2019-06-27T02:29:23.566Z,76.14
2019-06-27T02:30:33.324Z,75.95
2019-06-27T02:31:43.294Z,76.62
2019-06-27T02:32:53.249Z,77.38
2019-06-27T02:34:08.924Z,77.38
2019-06-27T02:35:18.634Z,77.28
2019-06-27T02:36:28.597Z,77.28
2019-06-27T02:37:38.609Z,76.9
2019-06-27T02:38:48.591Z,77.76
2019-06-27T02:39:58.566Z,77.76
2019-06-27T02:41:08.537Z,77.38
2019-06-27T02:42:18.494Z,77.95
2019-06-27T02:43:28.225Z,77.86
2019-06-27T02:44:38.292Z,79
2019-06-27T02:45:48.259Z,78.77
2019-06-27T02:46:58.223Z,78.3
2019-06-27T02:48:08.210Z,78.23
2019-06-27T02:49:18.203Z,78.77
2019-06-27T02:50:28.336Z,78.3
2019-06-27T02:51:38.338Z,77.62
2019-06-27T02:52:48.304Z,78.3
2019-06-27T02:53:58.305Z,78.67
2019-06-27T02:55:08.268Z,78.01
2019-06-27T02:56:18.236Z,78.1
2019-06-27T02:57:28.222Z,78.3
2019-06-27T02:58:38.212Z,78.3
2019-06-27T02:59:48.182Z,79.35
2019-06-27T03:00:58.172Z,78.86
2019-06-27T03:02:08.215Z,79.15
2019-06-27T03:03:18.175Z,79.44
2019-06-27T03:04:28.142Z,79.91
2019-06-27T03:05:38.150Z,78.77
2019-06-27T03:06:48.178Z,79.06
2019-06-27T03:07:57.927Z,79.06
2019-06-27T03:09:07.908Z,78.58
2019-06-27T03:10:18.155Z,78.49
2019-06-27T03:11:28.133Z,77.62
2019-06-27T03:12:38.118Z,78.1
2019-06-27T03:13:48.126Z,78.2
2019-06-27T03:14:58.100Z,78.58
2019-06-27T03:16:08.077Z,78.86
2019-06-27T03:17:18.050Z,79.25
2019-06-27T03:18:28.053Z,79.35
2019-06-27T03:19:38.034Z,79.15
2019-06-27T03:20:48.018Z,79.44
2019-06-27T03:21:57.997Z,80.11
2019-06-27T03:23:12.747Z,79.82
2019-06-27T03:24:22.512Z,79.63
2019-06-27T03:25:32.472Z,79.06
2019-06-27T03:26:42.449Z,79.72
2019-06-27T03:27:52.465Z,79.44
2019-06-27T03:29:02.427Z,79.06
2019-06-27T03:30:12.496Z,79.82
2019-06-27T03:31:22.714Z,80.2
2019-06-27T03:32:32.769Z,79.72
2019-06-27T03:33:42.946Z,79.25
2019-06-27T03:34:52.997Z,78.67
2019-06-27T03:36:03.018Z,78.58
2019-06-27T03:37:13.094Z,78.58
2019-06-27T03:38:22.808Z,78.77
2019-06-27T03:39:32.510Z,78.77
2019-06-27T03:40:42.233Z,78.39
2019-06-27T03:41:52.265Z,78.39
2019-06-27T03:43:02.265Z,78.01
2019-06-27T03:44:12.282Z,78.2
2019-06-27T03:45:22.272Z,78.67
2019-06-27T03:46:32.280Z,79.1
2019-06-27T03:47:42.280Z,78.33
2019-06-27T03:48:52.246Z,78.14
2019-06-27T03:50:02.269Z,78.33
2019-06-27T03:51:12.283Z,78.05
2019-06-27T03:52:22.246Z,77.86
2019-06-27T03:53:32.269Z,77.57
2019-06-27T03:54:42.256Z,77.09
2019-06-27T03:55:52.239Z,77.47
2019-06-27T03:57:02.215Z,77.76
2019-06-27T03:58:12.190Z,77.28
2019-06-27T03:59:22.189Z,77.38
2019-06-27T04:00:31.935Z,77.76
2019-06-27T04:01:41.683Z,77.28
2019-06-27T04:02:51.642Z,77.57
2019-06-27T04:04:01.611Z,77.19
2019-06-27T04:05:11.334Z,77.32
2019-06-27T04:06:21.066Z,76.08
2019-06-27T04:07:31.048Z,76.94
2019-06-27T04:08:41.023Z,76.65
2019-06-27T04:09:50.996Z,77.03
2019-06-27T04:11:01.010Z,75.98
2019-06-27T04:12:10.977Z,76.27
2019-06-27T04:13:20.686Z,76.37
2019-06-27T04:14:30.426Z,76.37
2019-06-27T04:15:40.394Z,75.98
2019-06-27T04:16:51.973Z,75.98
2019-06-27T04:18:01.993Z,75.51
2019-06-27T04:19:12.019Z,74.74
2019-06-27T04:20:22.016Z,74.46
2019-06-27T04:21:32.058Z,75.32
2019-06-27T04:22:42.027Z,76.18
2019-06-27T04:23:52.003Z,76.75
2019-06-27T04:25:02.107Z,75.98
2019-06-27T04:26:12.093Z,76.52
2019-06-27T04:27:22.068Z,76.62
2019-06-27T04:28:32.059Z,76.56
2019-06-27T04:29:41.761Z,76.84
2019-06-27T04:30:51.494Z,76.18
2019-06-27T04:32:01.467Z,76.18
2019-06-27T04:33:11.484Z,76.18
2019-06-27T04:34:22.726Z,76.56
2019-06-27T04:35:32.712Z,75.89
2019-06-27T04:36:42.731Z,76.46
2019-06-27T04:37:52.709Z,75.7
2019-06-27T04:39:02.682Z,74.93
2019-06-27T04:40:12.661Z,75.7
2019-06-27T04:41:22.659Z,75.7
2019-06-27T04:42:32.633Z,75.51
2019-06-27T04:43:42.643Z,74.93
2019-06-27T04:44:52.636Z,75.51
2019-06-27T04:46:02.608Z,75.6
2019-06-27T04:47:12.586Z,75.51
2019-06-27T04:48:22.416Z,75.89
2019-06-27T04:49:32.242Z,76.18
2019-06-27T04:50:42.255Z,75.98
2019-06-27T04:51:52.231Z,75.89
2019-06-27T04:53:02.198Z,75.51
2019-06-27T04:54:12.200Z,75.6
2019-06-27T04:55:22.169Z,75.6
2019-06-27T04:56:32.225Z,75.89
2019-06-27T04:57:42.203Z,76.84
2019-06-27T04:58:52.175Z,76.08
2019-06-27T05:00:01.637Z,76.56
2019-06-27T05:01:11.609Z,76.27
2019-06-27T05:02:21.579Z,76.65
2019-06-27T05:03:35.718Z,76.27
2019-06-27T05:04:45.706Z,76.18
2019-06-27T05:05:55.666Z,75.51
2019-06-27T05:07:05.675Z,75.7
2019-06-27T05:08:17.223Z,75.03
2019-06-27T05:09:27.250Z,76.08
2019-06-27T05:10:36.969Z,76.08
2019-06-27T05:11:46.964Z,76.18
2019-06-27T05:12:57.012Z,75.89
2019-06-27T05:14:06.997Z,75.79
2019-06-27T05:15:16.972Z,76.18
2019-06-27T05:16:26.934Z,76.08
2019-06-27T05:17:36.928Z,76.27
2019-06-27T05:18:46.894Z,75.98
2019-06-27T05:19:56.851Z,75.89
2019-06-27T05:21:10.598Z,75.98
2019-06-27T05:22:20.561Z,75.6
2019-06-27T05:23:30.589Z,75.32
2019-06-27T05:24:40.623Z,75.13
2019-06-27T05:25:50.762Z,75.7
2019-06-27T05:27:00.734Z,75.32
2019-06-27T05:28:10.819Z,74.93
2019-06-27T05:29:20.787Z,75.6
2019-06-27T05:30:30.237Z,76.69
2019-06-27T05:31:40.226Z,76.27
2019-06-27T05:32:49.987Z,75.35
2019-06-27T05:33:59.962Z,74.78
2019-06-27T05:35:10.053Z,75.54
2019-06-27T05:36:20.001Z,74.49
2019-06-27T05:37:29.939Z,73.88
2019-06-27T05:38:39.870Z,74.84
2019-06-27T05:39:49.819Z,73.98
2019-06-27T05:40:59.801Z,76.56
2019-06-27T05:42:09.517Z,77.03
2019-06-27T05:43:19.447Z,76.75
2019-06-27T05:44:29.436Z,75.98
2019-06-27T05:45:38.884Z,75.89
2019-06-27T05:46:48.829Z,76.18
2019-06-27T05:47:58.761Z,76.27
2019-06-27T05:49:08.454Z,75.83
2019-06-27T05:50:18.158Z,76.21
2019-06-27T05:51:28.092Z,75.45
2019-06-27T05:52:38.040Z,75.35
2019-06-27T05:53:48.042Z,75.42
2019-06-27T05:54:57.987Z,76.08
2019-06-27T05:56:07.852Z,73.16
2019-06-27T05:57:17.800Z,74.74
2019-06-27T05:58:27.839Z,75.13
2019-06-27T05:59:37.881Z,76.46
2019-06-27T06:00:47.823Z,75.79
2019-06-27T06:01:57.525Z,76.27
2019-06-27T06:03:07.473Z,76.46
2019-06-27T06:04:16.956Z,76.37
2019-06-27T06:05:29.329Z,74.84
2019-06-27T06:06:39.317Z,74.21
2019-06-27T06:07:49.291Z,71.69
2019-06-27T06:08:59.228Z,73.98
2019-06-27T06:10:09.192Z,74.55
2019-06-27T06:11:19.173Z,73.22
2019-06-27T06:12:29.128Z,73.5
2019-06-27T06:13:39.067Z,73.41
2019-06-27T06:14:49.019Z,74.46
2019-06-27T06:16:01.056Z,75.03
2019-06-27T06:17:11.198Z,74.84
2019-06-27T06:18:21.131Z,75.13
2019-06-27T06:19:31.091Z,73.41
2019-06-27T06:20:41.025Z,72.55
2019-06-27T06:21:50.964Z,72.58
2019-06-27T06:23:00.906Z,71.88
2019-06-27T06:24:10.895Z,72.55
2019-06-27T06:25:20.863Z,71.98
2019-06-27T06:26:30.889Z,72.17
2019-06-27T06:27:40.820Z,70.92
2019-06-27T06:28:50.802Z,71.69
2019-06-27T06:30:00.803Z,74.84
2019-06-27T06:31:10.769Z,74.46
2019-06-27T06:32:20.210Z,71.25
2019-06-27T06:33:30.149Z,72.58
2019-06-27T06:34:40.093Z,74.11
2019-06-27T06:35:50.043Z,72.39
2019-06-27T06:37:00.261Z,71.25
2019-06-27T06:38:13.366Z,72.78
2019-06-27T06:39:23.523Z,71.15
2019-06-27T06:40:33.571Z,69.72
2019-06-27T06:41:43.503Z,71.06
2019-06-27T06:42:56.886Z,70.96
2019-06-27T06:44:08.455Z,69.91
2019-06-27T06:45:18.387Z,69.34
2019-06-27T06:46:28.329Z,68.41
2019-06-27T06:47:38.291Z,69.62
2019-06-27T06:48:48.236Z,68.86
2019-06-27T06:49:58.212Z,71.25
2019-06-27T06:51:08.147Z,70.1
2019-06-27T06:52:18.092Z,69.05
2019-06-27T06:53:27.600Z,67.62
2019-06-27T06:54:37.538Z,68.1
2019-06-27T06:55:47.503Z,68.99
2019-06-27T06:56:57.456Z,67.05
2019-06-27T06:58:07.456Z,68.57
2019-06-27T06:59:17.139Z,69.05
2019-06-27T07:00:26.866Z,66.89
2019-06-27T07:01:36.805Z,67.52
2019-06-27T07:02:50.762Z,68.61
2019-06-27T07:04:00.794Z,68.8
2019-06-27T07:05:10.761Z,69.85
2019-06-27T07:06:20.850Z,70.04
2019-06-27T07:07:30.793Z,67.36
2019-06-27T07:08:40.729Z,66.99
2019-06-27T07:09:50.686Z,65.84
2019-06-27T07:11:00.628Z,66.79
2019-06-27T07:12:10.416Z,66.5
2019-06-27T07:13:20.481Z,67.36
2019-06-27T07:14:30.417Z,68.8
2019-06-27T07:15:40.368Z,66.41
2019-06-27T07:16:50.332Z,67.36
2019-06-27T07:18:00.265Z,66.41
2019-06-27T07:19:10.215Z,66.03
2019-06-27T07:20:20.541Z,67.46
2019-06-27T07:21:30.478Z,67.18
2019-06-27T07:22:40.410Z,68.9
2019-06-27T07:23:50.407Z,67.36
2019-06-27T07:25:00.118Z,68.8
2019-06-27T07:26:10.257Z,67.84
2019-06-27T07:27:20.113Z,69.41
2019-06-27T07:28:30.138Z,67.4
2019-06-27T07:29:40.159Z,64.15
2019-06-27T07:30:50.140Z,67.59
2019-06-27T07:32:00.087Z,66.41
2019-06-27T07:33:12.704Z,67.69
2019-06-27T07:34:22.701Z,67.4
2019-06-27T07:35:32.768Z,67.59
2019-06-27T07:36:42.899Z,67.49
2019-06-27T07:37:52.921Z,65.2
2019-06-27T07:39:02.873Z,65.2
2019-06-27T07:40:12.892Z,65.39
2019-06-27T07:41:22.837Z,65.11
2019-06-27T07:42:32.784Z,65.87
2019-06-27T07:43:42.720Z,67.4
2019-06-27T07:44:52.702Z,67.3
2019-06-27T07:46:02.656Z,65.58
2019-06-27T07:47:29.434Z,67.4
2019-06-27T07:48:39.386Z,66.67
2019-06-27T07:49:49.075Z,65.48
2019-06-27T07:50:59.016Z,65.14
2019-06-27T07:52:09.059Z,65.14
2019-06-27T07:53:19.455Z,64.25
2019-06-27T07:54:29.487Z,65.01
2019-06-27T07:55:39.172Z,68.16
2019-06-27T07:56:49.114Z,66.96
2019-06-27T07:57:59.048Z,66
2019-06-27T07:59:08.985Z,66.28
2019-06-27T08:00:18.683Z,66.09
2019-06-27T08:01:37.439Z,65.71
2019-06-27T08:02:47.676Z,65.84
2019-06-27T08:03:57.431Z,65.08
2019-06-27T08:05:07.376Z,65.74
2019-06-27T08:06:17.597Z,65.26
2019-06-27T08:07:27.555Z,63.16
2019-06-27T08:08:37.492Z,62.2
2019-06-27T08:09:47.219Z,64.02
2019-06-27T08:10:57.169Z,63.26
2019-06-27T08:12:07.182Z,62.01
2019-06-27T08:13:16.902Z,62.59
2019-06-27T08:14:26.613Z,64.4
2019-06-27T08:15:36.550Z,63.32
2019-06-27T08:16:46.506Z,64.66
2019-06-27T08:17:56.482Z,64.31
2019-06-27T08:19:06.433Z,64.59
2019-06-27T08:20:16.172Z,62.87
2019-06-27T08:21:26.116Z,62.77
2019-06-27T08:22:36.063Z,64.79
2019-06-27T08:23:45.771Z,63.16
2019-06-27T08:24:55.728Z,63.06
2019-06-27T08:26:05.668Z,64.12
2019-06-27T08:27:15.658Z,64.22
2019-06-27T08:28:25.609Z,64.22
2019-06-27T08:29:35.549Z,64.43
2019-06-27T08:30:45.552Z,64.43
2019-06-27T08:31:55.493Z,62.9
2019-06-27T08:33:05.429Z,61.47
2019-06-27T08:34:15.373Z,61.57
2019-06-27T08:35:25.309Z,61.76
2019-06-27T08:36:38.937Z,62.2
2019-06-27T08:37:49.244Z,62.11
2019-06-27T08:38:59.209Z,62.77
2019-06-27T08:40:09.147Z,63.29
2019-06-27T08:41:19.095Z,64.25
2019-06-27T08:42:29.066Z,64.63
2019-06-27T08:43:39.019Z,63.19
2019-06-27T08:44:48.970Z,63.1
2019-06-27T08:45:58.986Z,63
2019-06-27T08:47:08.993Z,62.81
2019-06-27T08:48:18.701Z,62.71
2019-06-27T08:49:28.387Z,61.21
2019-06-27T08:50:38.092Z,62.04
2019-06-27T08:51:48.045Z,60.7
2019-06-27T08:53:01.040Z,62.04
2019-06-27T08:54:11.359Z,62.52
2019-06-27T08:55:21.310Z,62.04
2019-06-27T08:56:31.265Z,64.34
2019-06-27T08:57:41.203Z,62.55
2019-06-27T08:58:51.173Z,61.02
2019-06-27T09:00:01.162Z,61.98
2019-06-27T09:01:11.243Z,63.13
2019-06-27T09:02:21.195Z,61.88
2019-06-27T09:03:31.158Z,62.84
2019-06-27T09:04:41.164Z,62.07
2019-06-27T09:05:51.134Z,62.74
2019-06-27T09:07:01.090Z,62.46
2019-06-27T09:08:11.036Z,59.71
2019-06-27T09:09:20.759Z,60.44
2019-06-27T09:10:30.716Z,60.83
2019-06-27T09:11:40.847Z,60.16
2019-06-27T09:12:50.809Z,62.07
2019-06-27T09:14:00.801Z,62.36
2019-06-27T09:15:10.768Z,61.88
2019-06-27T09:16:20.707Z,63.42
2019-06-27T09:17:30.660Z,62.26
2019-06-27T09:18:40.704Z,62.77
2019-06-27T09:19:50.668Z,61.43
2019-06-27T09:21:00.684Z,60.38
2019-06-27T09:22:10.375Z,60
2019-06-27T09:23:20.352Z,60
2019-06-27T09:24:30.319Z,59.04
2019-06-27T09:25:40.300Z,60.09
2019-06-27T09:26:50.330Z,62.2
2019-06-27T09:28:00.033Z,59.42
2019-06-27T09:29:10.031Z,59.42
2019-06-27T09:30:19.466Z,58.44
2019-06-27T09:31:29.154Z,58.84
2019-06-27T09:32:39.159Z,59.23
2019-06-27T09:33:49.137Z,58.75
2019-06-27T09:34:59.125Z,58.94
2019-06-27T09:36:09.155Z,61.82
2019-06-27T09:37:19.111Z,62.77
2019-06-27T09:38:29.051Z,62.1
2019-06-27T09:39:39.275Z,60.86
2019-06-27T09:40:49.294Z,59.71
2019-06-27T09:41:59.247Z,59.42
2019-06-27T09:43:09.187Z,60.79
2019-06-27T09:44:18.896Z,60.79
2019-06-27T09:45:28.086Z,60.79
2019-06-27T09:46:38.063Z,60.35
2019-06-27T09:47:47.799Z,59.67
2019-06-27T09:48:57.805Z,58.71
2019-06-27T09:50:07.753Z,59.96
2019-06-27T09:51:17.746Z,60.63
2019-06-27T09:52:27.691Z,59.86
2019-06-27T09:53:37.636Z,60.44
2019-06-27T09:54:47.356Z,58.23
2019-06-27T09:55:57.371Z,56.31
2019-06-27T09:57:07.370Z,56.89
2019-06-27T09:58:17.308Z,58.33
2019-06-27T09:59:27.272Z,58.23
2019-06-27T10:00:36.957Z,58.33
2019-06-27T10:01:46.891Z,58.14
2019-06-27T10:02:56.840Z,57.75
2019-06-27T10:04:06.882Z,57.85
2019-06-27T10:05:16.827Z,59.19
2019-06-27T10:06:28.754Z,59.16
2019-06-27T10:07:38.694Z,57.46
2019-06-27T10:08:48.668Z,58.81
2019-06-27T10:09:58.620Z,59.38
2019-06-27T10:11:08.576Z,58.81
2019-06-27T10:12:18.514Z,58.81
2019-06-27T10:13:44.549Z,58.33
2019-06-27T10:14:54.522Z,58.55
2019-06-27T10:16:04.487Z,59.7
2019-06-27T10:17:14.434Z,59.22
2019-06-27T10:18:24.379Z,59.03
2019-06-27T10:19:34.130Z,56.92
2019-06-27T10:20:44.075Z,55.77
2019-06-27T10:21:54.017Z,57.78
2019-06-27T10:23:04.077Z,56.15
2019-06-27T10:24:14.049Z,56.73
2019-06-27T10:25:24.171Z,56.82
2019-06-27T10:26:34.110Z,55.6
2019-06-27T10:27:44.221Z,55.38
2019-06-27T10:28:54.231Z,58.84
2019-06-27T10:30:04.231Z,58.58
2019-06-27T10:31:14.191Z,58.96
2019-06-27T10:32:24.132Z,58.96
2019-06-27T10:33:34.076Z,57.81
2019-06-27T10:34:44.055Z,57.43
2019-06-27T10:35:54.002Z,57.52
2019-06-27T10:37:03.970Z,55.82
2019-06-27T10:38:13.951Z,56.11
2019-06-27T10:39:23.647Z,56.78
2019-06-27T10:40:33.383Z,57.26
2019-06-27T10:41:43.347Z,57.93
2019-06-27T10:42:53.304Z,56.01
2019-06-27T10:44:03.325Z,53.52
2019-06-27T10:45:13.440Z,56.11
2019-06-27T10:46:23.286Z,54.67
2019-06-27T10:47:33.287Z,55.34
2019-06-27T10:48:43.277Z,54.38
2019-06-27T10:49:53.259Z,55.73
2019-06-27T10:51:03.208Z,55.34
2019-06-27T10:52:13.261Z,55.34
2019-06-27T10:53:23.198Z,55.85
2019-06-27T10:54:33.146Z,55.76
2019-06-27T10:55:43.084Z,56.14
2019-06-27T10:56:53.035Z,55.66
2019-06-27T10:58:03.185Z,55.85
2019-06-27T10:59:13.134Z,56.65
2019-06-27T11:00:22.880Z,54.53
2019-06-27T11:01:32.840Z,53.86
2019-06-27T11:02:42.779Z,54.91
2019-06-27T11:03:52.760Z,54.65
2019-06-27T11:05:02.707Z,54.65
2019-06-27T11:06:12.646Z,54.56
2019-06-27T11:07:22.602Z,52.73
2019-06-27T11:08:32.569Z,50.23
2019-06-27T11:09:42.560Z,48.4
2019-06-27T11:10:55.375Z,50.23
2019-06-27T11:12:05.334Z,48.08
2019-06-27T11:13:15.370Z,49.51
2019-06-27T11:14:25.403Z,50.46
2019-06-27T11:15:35.115Z,53.45
2019-06-27T11:16:45.078Z,52.89
2019-06-27T11:17:55.046Z,50.78
2019-06-27T11:19:05.045Z,50.97
2019-06-27T11:20:17.663Z,48.85
2019-06-27T11:21:27.650Z,48.28
2019-06-27T11:22:37.590Z,50.78
2019-06-27T11:23:47.580Z,49.89
2019-06-27T11:24:57.530Z,52.51
2019-06-27T11:26:09.444Z,50.2
2019-06-27T11:27:19.627Z,49.72
2019-06-27T11:28:32.636Z,50.2
2019-06-27T11:29:42.609Z,51.93
2019-06-27T11:30:52.597Z,51.55
2019-06-27T11:32:02.600Z,51.09
2019-06-27T11:33:12.651Z,52.25
2019-06-27T11:34:38.857Z,53.59
2019-06-27T11:35:48.809Z,52.75
2019-06-27T11:36:58.837Z,51.82
2019-06-27T11:38:08.812Z,52.23
2019-06-27T11:39:18.942Z,50.21
2019-06-27T11:40:30.525Z,50.26
2019-06-27T11:41:40.468Z,49.22
2019-06-27T11:42:50.457Z,47.89
2019-06-27T11:44:00.410Z,45.14
2019-06-27T11:45:10.373Z,45.35
2019-06-27T11:46:20.338Z,45.49
2019-06-27T11:47:30.099Z,45.32
2019-06-27T11:48:42.225Z,44.68
2019-06-27T11:49:52.199Z,43.93
2019-06-27T11:51:02.149Z,41.26
2019-06-27T11:52:11.666Z,41.18
2019-06-27T11:53:21.376Z,41.01
2019-06-27T11:54:31.330Z,40.08
2019-06-27T11:55:41.220Z,39.12
2019-06-27T11:56:51.176Z,37.5
2019-06-27T11:58:01.263Z,33.92
2019-06-27T11:59:11.234Z,32.26
2019-06-27T12:00:20.745Z,34.88
2019-06-27T12:01:30.554Z,35.86
2019-06-27T12:02:40.679Z,32.68
2019-06-27T12:03:52.413Z,31.79
2019-06-27T12:05:02.381Z,31.1
2019-06-27T12:06:12.339Z,30.22
2019-06-27T12:07:22.296Z,26.9
2019-06-27T12:08:32.271Z,30.85
2019-06-27T12:09:42.257Z,31.14
2019-06-27T12:10:52.218Z,31.74
2019-06-27T12:12:02.209Z,34.09
2019-06-27T12:13:12.442Z,30.41
2019-06-27T12:14:22.439Z,31.2
2019-06-27T12:15:32.139Z,28.29
2019-06-27T12:16:42.099Z,30.57
2019-06-27T12:17:52.152Z,31.84
2019-06-27T12:19:02.184Z,32.28
2019-06-27T12:20:12.159Z,32.64
2019-06-27T12:21:22.119Z,31.95
2019-06-27T12:22:32.200Z,32.12
2019-06-27T12:23:42.001Z,31.82
2019-06-27T12:24:51.962Z,33.36
2019-06-27T12:26:01.932Z,34.7
2019-06-27T12:27:11.916Z,34.61
2019-06-27T12:28:21.892Z,36.72
2019-06-27T12:29:31.665Z,32.96
2019-06-27T12:30:41.679Z,35.94
2019-06-27T12:31:54.044Z,36.52
2019-06-27T12:33:04.220Z,34.51
2019-06-27T12:34:14.204Z,34.2
2019-06-27T12:35:23.742Z,34.96
2019-06-27T12:36:33.948Z,37.48
2019-06-27T12:37:43.926Z,35.54
2019-06-27T12:38:53.894Z,33.89
2019-06-27T12:40:03.892Z,35.07
2019-06-27T12:41:13.363Z,35.85
2019-06-27T12:42:34.782Z,36.32
2019-06-27T12:43:44.763Z,33.52
2019-06-27T12:44:54.719Z,32.09
2019-06-27T12:46:04.671Z,32.2
2019-06-27T12:47:14.660Z,33.34
2019-06-27T12:48:24.368Z,33.64
2019-06-27T12:50:02.454Z,36.02
2019-06-27T12:51:12.949Z,37.28
2019-06-27T12:52:22.659Z,35.46
2019-06-27T12:53:32.675Z,34.99
2019-06-27T12:54:42.647Z,30.35
2019-06-27T12:55:52.740Z,31.71
2019-06-27T12:57:02.782Z,34.8
2019-06-27T12:58:12.832Z,33.06
2019-06-27T12:59:22.791Z,36.06
2019-06-27T13:00:32.267Z,34.22
2019-06-27T13:01:42.354Z,34.97
2019-06-27T13:02:52.321Z,36.51
2019-06-27T13:04:02.334Z,33.34
2019-06-27T13:05:28.091Z,36.43
2019-06-27T13:06:37.903Z,34.61
2019-06-27T13:07:47.906Z,33.44
2019-06-27T13:08:57.866Z,33.34
2019-06-27T13:10:07.843Z,33.07
2019-06-27T13:11:17.827Z,32.6
2019-06-27T13:12:27.817Z,32.32
2019-06-27T13:13:37.795Z,32.71
2019-06-27T13:14:47.845Z,35.11
2019-06-27T13:15:57.656Z,34.85
2019-06-27T13:17:07.364Z,32.75
2019-06-27T13:18:17.350Z,32.57
2019-06-27T13:19:27.317Z,32.15
2019-06-27T13:20:36.767Z,35.24
2019-06-27T13:22:03.818Z,32.07
2019-06-27T13:23:13.873Z,31.71
2019-06-27T13:24:23.643Z,30.26
2019-06-27T13:25:36.659Z,31.24
2019-06-27T13:26:46.620Z,29.21
2019-06-27T13:27:56.602Z,30.1
2019-06-27T13:29:06.401Z,31.74
2019-06-27T13:30:16.414Z,29.61
2019-06-27T13:31:26.201Z,30.28
2019-06-27T13:32:36.202Z,29.58
2019-06-27T13:33:46.161Z,29.5
2019-06-27T13:34:56.151Z,30.93
2019-06-27T13:36:06.147Z,30.25
2019-06-27T13:37:16.343Z,30.67
2019-06-27T13:38:26.319Z,29.71
2019-06-27T13:39:36.312Z,29.4
2019-06-27T13:40:46.051Z,29.88
2019-06-27T13:41:56.023Z,29.6
2019-06-27T13:43:05.988Z,28.93
2019-06-27T13:44:15.948Z,29.11
2019-06-27T13:45:28.986Z,29.58
2019-06-27T13:46:38.981Z,29.86
2019-06-27T13:47:49.111Z,31.22
2019-06-27T13:48:59.207Z,29.21
2019-06-27T13:50:08.951Z,29.03
2019-06-27T13:51:18.916Z,30.39
2019-06-27T13:52:28.881Z,28.18
2019-06-27T13:53:38.904Z,29.18
2019-06-27T13:54:48.612Z,28.03
2019-06-27T13:55:58.583Z,26
2019-06-27T13:57:08.551Z,26.49
2019-06-27T13:58:18.523Z,25.71
2019-06-27T13:59:28.572Z,26.98
2019-06-27T14:00:38.053Z,26.89
2019-06-27T14:01:47.773Z,27.21
2019-06-27T14:02:57.749Z,23.42
2019-06-27T14:04:07.714Z,25.96
2019-06-27T14:05:17.673Z,24.99
2019-06-27T14:06:27.670Z,23.16
2019-06-27T14:07:37.573Z,24.63
2019-06-27T14:08:47.661Z,23.66
2019-06-27T14:09:59.956Z,22.01
2019-06-27T14:11:10.029Z,21.22
2019-06-27T14:12:19.986Z,21.5
2019-06-27T14:13:29.980Z,22.35
2019-06-27T14:14:39.706Z,22.94
2019-06-27T14:16:08.429Z,22.34
2019-06-27T14:17:18.443Z,21.55
2019-06-27T14:18:28.434Z,25.33
2019-06-27T14:19:38.402Z,24.64
2019-06-27T14:20:48.401Z,24.27
2019-06-27T14:22:01.379Z,22.81
2019-06-27T14:23:11.334Z,21.17
2019-06-27T14:24:21.311Z,23.41
2019-06-27T14:25:31.022Z,23.19
2019-06-27T14:26:40.739Z,22.5
2019-06-27T14:27:50.739Z,22.5
2019-06-27T14:29:00.809Z,23.54
2019-06-27T14:30:10.780Z,23.35
2019-06-27T14:31:20.761Z,23.93
2019-06-27T14:32:30.718Z,23.74
2019-06-27T14:33:40.677Z,25.65
2019-06-27T14:34:50.811Z,25.47
2019-06-27T14:36:17.713Z,25.37
2019-06-27T14:37:27.735Z,27.12
2019-06-27T14:38:37.706Z,26.14
2019-06-27T14:39:47.669Z,25.49
2019-06-27T14:41:01.754Z,26.34
2019-06-27T14:42:11.469Z,25.49
2019-06-27T14:43:20.941Z,24.62
2019-06-27T14:44:30.907Z,25.21
2019-06-27T14:45:40.623Z,24.24
2019-06-27T14:46:50.589Z,24.43
2019-06-27T14:48:00.608Z,23.79
2019-06-27T14:49:10.091Z,22.52
2019-06-27T14:50:20.072Z,25.35
2019-06-27T14:51:30.036Z,23.9
2019-06-27T14:52:40.006Z,21.55
2019-06-27T14:53:49.980Z,23.76
2019-06-27T14:54:59.958Z,23.83
2019-06-27T14:56:09.938Z,25.76
2019-06-27T14:57:19.657Z,25.4
2019-06-27T14:58:33.174Z,24.43
2019-06-27T14:59:43.478Z,24.81
2019-06-27T15:00:53.438Z,23.37
2019-06-27T15:02:07.922Z,26.35
2019-06-27T15:03:17.646Z,22.46
2019-06-27T15:04:27.611Z,22.83
2019-06-27T15:05:37.327Z,25.71
2019-06-27T15:06:47.306Z,25.04
2019-06-27T15:07:57.270Z,25.16
2019-06-27T15:09:07.227Z,23.72